LFJL/ETZ METAR and TAF weather

Enter ICAO airport designator
Station Type Date Time Source
LFJL METAR 2022/01/26 07:00 UTC NOAA

LFJL 260700Z AUTO 24003KT 210V270 2500 BR OVC002 M02/M02 Q1033 TEMPO 0500 FZFG VV///


Station Type Date Time Source
LFJL Decoded METAR 2022/01/26 07:00 UTC NOAA

Metz-Nancy-Lorraine, France (LFJL) 48-59N 006-15E
Jan 26, 2022 - 02:00 AM EST / 2022.01.26 0700 UTC
Wind: from the WSW (240 degrees) at 3 MPH (3 KT) (direction variable):0
Visibility: 1 mile(s):0
Sky conditions: overcast
Weather: mist
Temperature: 28 F (-2 C)
Dew Point: 28 F (-2 C)
Relative Humidity: 100%
Pressure (altimeter): 30.50 in. Hg (1033 hPa)
ob: LFJL 260700Z AUTO 24003KT 210V270 2500 BR OVC002 M02/M02 Q1033 TEMPO 0500 FZFG VV///
cycle: 7

Station Type Date Time Source
LFJL TAF 2022/01/26 06:21 UTC NOAA

TAF LFJL 260500Z 2606/2706 29005KT 2500 BR OVC003
TEMPO 2606/2609 0500 FZFG VV///
BECMG 2609/2611 4000 BR OVC006
BECMG 2612/2614 8000 OVC013 PROB30
TEMPO 2614/2617 SCT015
BECMG 2617/2619 2500 BR OVC003 PROB40 2619/2624 0400 FZFG VV///

Example: see airport list